createdAt,value
2022-08-27T00:00:49.795Z,21.37
2022-08-27T00:03:17.445Z,21.36
2022-08-27T00:05:44.513Z,21.32
2022-08-27T00:08:13.241Z,21.26
2022-08-27T00:10:41.267Z,21.21
2022-08-27T00:13:08.836Z,21.16
2022-08-27T00:15:35.919Z,21.10
2022-08-27T00:18:03.259Z,21.07
2022-08-27T00:20:30.473Z,21.05
2022-08-27T00:22:57.617Z,21.02
2022-08-27T00:25:25.078Z,21.01
2022-08-27T00:27:52.518Z,20.96
2022-08-27T00:30:22.941Z,20.91
2022-08-27T00:32:50.291Z,20.87
2022-08-27T00:35:17.697Z,20.84
2022-08-27T00:37:45.858Z,20.83
2022-08-27T00:40:17.143Z,20.82
2022-08-27T00:42:46.429Z,20.80
2022-08-27T00:45:20.005Z,20.79
2022-08-27T00:47:51.552Z,20.76
2022-08-27T00:50:25.272Z,20.76
2022-08-27T00:52:56.372Z,20.75
2022-08-27T00:55:27.619Z,20.76
2022-08-27T00:58:16.782Z,20.74
2022-08-27T01:00:46.325Z,20.71
2022-08-27T01:03:14.274Z,20.69
2022-08-27T01:05:43.825Z,20.69
2022-08-27T01:08:17.885Z,20.67
2022-08-27T01:10:46.693Z,20.66
2022-08-27T01:13:17.701Z,20.63
2022-08-27T01:15:45.089Z,20.61
2022-08-27T01:18:14.158Z,20.58
2022-08-27T01:21:08.158Z,20.57
2022-08-27T01:24:02.870Z,20.57
2022-08-27T01:26:31.637Z,20.55
2022-08-27T01:28:59.915Z,20.51
2022-08-27T01:31:27.574Z,20.48
2022-08-27T01:33:56.255Z,20.47
2022-08-27T01:36:23.462Z,20.47
2022-08-27T01:38:50.789Z,20.46
2022-08-27T01:41:19.216Z,20.46
2022-08-27T01:43:47.830Z,20.43
2022-08-27T01:46:15.614Z,20.40
2022-08-27T01:48:42.824Z,20.37
2022-08-27T01:51:10.160Z,20.33
2022-08-27T01:53:37.271Z,20.26
2022-08-27T01:56:05.155Z,20.23
2022-08-27T01:58:33.937Z,20.19
2022-08-27T02:01:10.284Z,20.15
2022-08-27T02:03:40.226Z,20.13
2022-08-27T02:06:11.387Z,20.10
2022-08-27T02:08:38.987Z,20.08
2022-08-27T02:11:06.737Z,20.10
2022-08-27T02:13:33.902Z,20.11
2022-08-27T02:16:00.986Z,20.08
2022-08-27T02:18:28.037Z,20.05
2022-08-27T02:20:55.004Z,20.04
2022-08-27T02:23:22.565Z,20.03
2022-08-27T02:25:49.643Z,19.98
2022-08-27T02:28:16.565Z,19.96
2022-08-27T02:30:43.712Z,19.93
2022-08-27T02:33:10.615Z,19.92
2022-08-27T02:35:44.504Z,19.90
2022-08-27T02:38:14.253Z,19.88
2022-08-27T02:40:41.205Z,19.87
2022-08-27T02:43:08.304Z,19.88
2022-08-27T02:45:37.680Z,19.89
2022-08-27T02:48:06.015Z,19.88
2022-08-27T02:50:33.886Z,19.89
2022-08-27T02:53:02.820Z,19.90
2022-08-27T02:55:30.445Z,19.90
2022-08-27T02:57:57.648Z,19.88
2022-08-27T03:00:26.298Z,19.89
2022-08-27T03:02:53.369Z,19.88
2022-08-27T03:05:22.741Z,19.91
2022-08-27T03:07:49.871Z,19.92
2022-08-27T03:10:19.525Z,19.92
2022-08-27T03:12:46.635Z,19.92
2022-08-27T03:15:18.181Z,19.91
2022-08-27T03:18:04.140Z,19.91
2022-08-27T03:20:31.284Z,19.91
2022-08-27T03:22:58.449Z,19.91
2022-08-27T03:25:26.149Z,19.90
2022-08-27T03:27:53.111Z,19.90
2022-08-27T03:30:22.467Z,19.88
2022-08-27T03:32:50.469Z,19.88
2022-08-27T03:35:18.427Z,19.89
2022-08-27T03:37:45.633Z,19.90
2022-08-27T03:40:13.797Z,19.90
2022-08-27T03:42:44.941Z,19.89
2022-08-27T03:45:16.256Z,19.87
2022-08-27T03:47:43.222Z,19.85
2022-08-27T03:50:11.412Z,19.83
2022-08-27T03:52:38.702Z,19.84
2022-08-27T03:55:16.122Z,19.84
2022-08-27T03:57:43.132Z,19.82
2022-08-27T04:00:15.266Z,19.81
2022-08-27T04:02:43.312Z,19.78
2022-08-27T04:05:17.999Z,19.74
2022-08-27T04:07:45.050Z,19.68
2022-08-27T04:10:13.643Z,19.60
2022-08-27T04:12:41.126Z,19.56
2022-08-27T04:15:17.715Z,19.53
2022-08-27T04:17:44.740Z,19.49
2022-08-27T04:20:33.905Z,19.46
2022-08-27T04:22:59.786Z,19.42
2022-08-27T04:25:26.811Z,19.43
2022-08-27T04:27:54.306Z,19.43
2022-08-27T04:30:21.193Z,19.45
2022-08-27T04:32:48.151Z,19.46
2022-08-27T04:35:19.102Z,19.47
2022-08-27T04:37:46.149Z,19.48
2022-08-27T04:40:13.287Z,19.48
2022-08-27T04:42:40.295Z,19.49
2022-08-27T04:45:19.201Z,19.49
2022-08-27T04:47:46.175Z,19.48
2022-08-27T04:50:13.426Z,19.51
2022-08-27T04:52:43.404Z,19.51
2022-08-27T04:55:18.555Z,19.53
2022-08-27T04:57:45.611Z,19.51
2022-08-27T05:00:13.343Z,19.51
2022-08-27T05:02:40.327Z,19.53
2022-08-27T05:05:17.366Z,19.55
2022-08-27T05:07:44.336Z,19.56
2022-08-27T05:10:12.570Z,19.57
2022-08-27T05:12:39.677Z,19.58
2022-08-27T05:15:16.701Z,19.58
2022-08-27T05:17:44.348Z,19.59
2022-08-27T05:20:11.849Z,19.57
2022-08-27T05:22:39.874Z,19.57
2022-08-27T05:25:16.932Z,19.53
2022-08-27T05:27:44.567Z,19.49
2022-08-27T05:30:12.521Z,19.44
2022-08-27T05:32:40.154Z,19.41
2022-08-27T05:35:16.879Z,19.40
2022-08-27T05:37:43.914Z,19.38
2022-08-27T05:40:11.511Z,19.38
2022-08-27T05:42:38.504Z,19.37
2022-08-27T05:45:14.787Z,19.37
2022-08-27T05:47:44.464Z,19.36
2022-08-27T05:50:11.754Z,19.35
2022-08-27T05:52:38.530Z,19.37
2022-08-27T05:55:12.616Z,19.39
2022-08-27T05:57:39.404Z,19.40
2022-08-27T06:00:25.463Z,19.42
2022-08-27T06:02:52.236Z,19.42
2022-08-27T06:05:19.239Z,19.41
2022-08-27T06:07:46.512Z,19.41
2022-08-27T06:10:13.715Z,19.43
2022-08-27T06:12:40.510Z,19.44
2022-08-27T06:15:12.427Z,19.44
2022-08-27T06:17:39.499Z,19.46
2022-08-27T06:20:06.888Z,19.45
2022-08-27T06:22:33.927Z,19.47
2022-08-27T06:25:00.744Z,19.47
2022-08-27T06:27:27.750Z,19.48
2022-08-27T06:29:54.511Z,19.48
2022-08-27T06:32:21.500Z,19.50
2022-08-27T06:34:48.840Z,19.51
2022-08-27T06:37:15.737Z,19.50
2022-08-27T06:39:42.595Z,19.49
2022-08-27T06:42:12.111Z,19.48
2022-08-27T06:44:38.966Z,19.45
2022-08-27T06:47:05.842Z,19.44
2022-08-27T06:49:33.782Z,19.40
2022-08-27T06:52:01.374Z,19.42
2022-08-27T06:54:28.195Z,19.44
2022-08-27T06:56:59.466Z,19.44
2022-08-27T06:59:26.486Z,19.40
2022-08-27T07:01:53.363Z,19.39
2022-08-27T07:04:27.885Z,19.41
2022-08-27T07:07:00.367Z,19.47
2022-08-27T07:09:27.343Z,19.46
2022-08-27T07:11:54.980Z,19.45
2022-08-27T07:14:22.176Z,19.45
2022-08-27T07:16:49.558Z,19.45
2022-08-27T07:19:18.903Z,19.47
2022-08-27T07:21:48.489Z,19.49
2022-08-27T07:24:15.595Z,19.55
2022-08-27T07:26:43.927Z,19.59
2022-08-27T07:29:15.147Z,19.61
2022-08-27T07:31:43.900Z,19.70
2022-08-27T07:34:10.907Z,19.70
2022-08-27T07:36:38.770Z,19.72
2022-08-27T07:39:06.032Z,19.75
2022-08-27T07:41:53.967Z,19.78
2022-08-27T07:44:31.097Z,19.83
2022-08-27T07:47:01.525Z,19.86
2022-08-27T07:49:29.396Z,19.92
2022-08-27T07:51:56.360Z,19.96
2022-08-27T07:54:23.522Z,19.97
2022-08-27T07:56:55.672Z,20.06
2022-08-27T07:59:24.790Z,20.25
2022-08-27T08:01:52.329Z,20.36
2022-08-27T08:04:20.529Z,20.37
2022-08-27T08:06:48.432Z,20.38
2022-08-27T08:09:16.269Z,20.39
2022-08-27T08:11:43.178Z,20.41
2022-08-27T08:14:09.989Z,20.41
2022-08-27T08:16:36.919Z,20.44
2022-08-27T08:19:04.110Z,20.48
2022-08-27T08:21:30.923Z,20.49
2022-08-27T08:23:58.381Z,20.51
2022-08-27T08:26:25.223Z,20.48
2022-08-27T08:28:52.001Z,20.53
2022-08-27T08:31:18.876Z,20.55
2022-08-27T08:33:48.216Z,20.54
2022-08-27T08:36:17.250Z,20.58
2022-08-27T08:38:45.325Z,20.57
2022-08-27T08:41:33.260Z,20.56
2022-08-27T08:44:06.530Z,20.57
2022-08-27T08:46:41.953Z,20.61
2022-08-27T08:49:23.865Z,20.62
2022-08-27T08:51:54.326Z,20.70
2022-08-27T08:54:24.899Z,20.77
2022-08-27T08:56:57.358Z,20.84
2022-08-27T08:59:31.957Z,20.91
2022-08-27T09:01:59.367Z,20.96
2022-08-27T09:04:27.651Z,21.01
2022-08-27T09:07:13.682Z,21.05
2022-08-27T09:10:15.983Z,21.09
2022-08-27T09:12:42.924Z,21.13
2022-08-27T09:15:20.246Z,21.30
2022-08-27T09:17:48.328Z,21.30
2022-08-27T09:20:21.927Z,21.30
2022-08-27T09:23:13.800Z,21.34
2022-08-27T09:25:43.629Z,21.34
2022-08-27T09:28:38.548Z,21.35
2022-08-27T09:31:08.952Z,21.40
2022-08-27T09:33:44.639Z,21.44
2022-08-27T09:36:24.004Z,21.54
2022-08-27T09:38:59.384Z,21.62
2022-08-27T09:41:47.934Z,21.72
2022-08-27T09:44:19.606Z,21.83
2022-08-27T09:46:53.921Z,21.92
2022-08-27T09:49:21.176Z,21.99
2022-08-27T09:51:48.588Z,22.01
2022-08-27T09:54:32.018Z,22.14
2022-08-27T09:56:59.344Z,22.23
2022-08-27T09:59:33.527Z,22.36
2022-08-27T10:02:23.548Z,22.42
2022-08-27T10:04:52.908Z,22.48
2022-08-27T10:08:02.407Z,22.58
2022-08-27T10:10:47.674Z,22.49
2022-08-27T10:13:20.255Z,22.46
2022-08-27T10:16:02.455Z,22.42
2022-08-27T10:19:06.965Z,22.46
2022-08-27T10:22:09.258Z,22.46
2022-08-27T10:24:55.077Z,22.48
2022-08-27T10:28:11.214Z,22.50
2022-08-27T10:30:50.003Z,22.54
2022-08-27T10:33:33.914Z,22.57
2022-08-27T10:36:16.978Z,22.57
2022-08-27T10:39:01.342Z,22.58
2022-08-27T10:41:41.349Z,22.67
2022-08-27T10:44:08.072Z,22.68
2022-08-27T10:47:10.736Z,22.63
2022-08-27T10:49:37.435Z,22.55
2022-08-27T10:52:12.854Z,22.51
2022-08-27T10:55:15.057Z,22.50
2022-08-27T10:57:57.787Z,22.57
2022-08-27T11:00:49.079Z,22.65
2022-08-27T11:03:33.330Z,22.72
2022-08-27T11:06:07.563Z,22.69
2022-08-27T11:08:52.354Z,22.73
2022-08-27T11:12:12.815Z,22.71
2022-08-27T11:15:01.725Z,22.61
2022-08-27T11:17:36.506Z,22.54
2022-08-27T11:20:10.658Z,22.54
2022-08-27T11:22:55.519Z,22.56
2022-08-27T11:25:22.232Z,22.56
2022-08-27T11:27:54.546Z,22.60
2022-08-27T11:30:49.033Z,22.76
2022-08-27T11:33:35.234Z,22.75
2022-08-27T11:36:24.750Z,22.68
2022-08-27T11:39:19.097Z,22.63
2022-08-27T11:42:05.449Z,22.63
2022-08-27T11:44:32.543Z,22.65
2022-08-27T11:47:21.632Z,22.68
2022-08-27T11:49:56.538Z,22.75
2022-08-27T11:52:36.258Z,22.87
2022-08-27T11:55:27.395Z,23.00
2022-08-27T11:58:19.435Z,23.05
2022-08-27T12:00:48.551Z,23.03
2022-08-27T12:03:27.623Z,23.08
2022-08-27T12:05:54.403Z,23.14
2022-08-27T12:08:30.781Z,23.24
2022-08-27T12:11:06.350Z,23.28
2022-08-27T12:13:38.349Z,23.32
2022-08-27T12:16:43.702Z,23.43
2022-08-27T12:19:38.131Z,23.44
2022-08-27T12:22:18.708Z,23.47
2022-08-27T12:24:58.185Z,23.47
2022-08-27T12:27:36.815Z,23.39
2022-08-27T12:30:26.861Z,23.31
2022-08-27T12:32:56.506Z,23.30
2022-08-27T12:35:31.972Z,23.28
2022-08-27T12:38:20.542Z,23.37
2022-08-27T12:41:00.338Z,23.40
2022-08-27T12:43:29.285Z,23.43
2022-08-27T12:46:00.640Z,23.45
2022-08-27T12:48:32.504Z,23.51
2022-08-27T12:51:08.513Z,23.54
2022-08-27T12:53:44.976Z,23.56
2022-08-27T12:56:42.892Z,23.60
2022-08-27T12:59:39.461Z,23.63
2022-08-27T13:02:27.952Z,23.69
2022-08-27T13:04:56.955Z,23.69
2022-08-27T13:07:38.091Z,23.71
2022-08-27T13:10:14.479Z,23.78
2022-08-27T13:12:43.462Z,23.83
2022-08-27T13:15:21.243Z,23.86
2022-08-27T13:17:49.683Z,23.92
2022-08-27T13:20:26.634Z,23.95
2022-08-27T13:22:54.545Z,24.03
2022-08-27T13:25:31.326Z,24.10
2022-08-27T13:28:08.595Z,24.16
2022-08-27T13:30:38.719Z,24.22
2022-08-27T13:33:08.020Z,24.26
2022-08-27T13:35:35.823Z,24.24
2022-08-27T13:38:04.069Z,24.25
2022-08-27T13:40:37.529Z,24.26
2022-08-27T13:43:13.900Z,24.22
2022-08-27T13:45:42.478Z,24.28
2022-08-27T13:48:12.788Z,24.28
2022-08-27T13:50:49.683Z,24.24
2022-08-27T13:53:41.613Z,24.22
2022-08-27T13:56:08.486Z,24.18
2022-08-27T13:58:36.489Z,24.08
2022-08-27T14:01:16.694Z,24.02
2022-08-27T14:03:51.612Z,23.99
2022-08-27T14:06:35.693Z,24.04
2022-08-27T14:09:22.359Z,24.08
2022-08-27T14:11:58.664Z,24.07
2022-08-27T14:14:26.066Z,23.99
2022-08-27T14:16:59.505Z,23.97
2022-08-27T14:19:36.199Z,23.95
2022-08-27T14:22:04.673Z,23.96
2022-08-27T14:24:31.463Z,23.94
2022-08-27T14:27:06.244Z,23.99
2022-08-27T14:29:33.094Z,23.98
2022-08-27T14:32:00.016Z,23.93
2022-08-27T14:34:27.092Z,23.90
2022-08-27T14:36:55.149Z,23.87
2022-08-27T14:39:26.531Z,23.88
2022-08-27T14:41:54.594Z,23.90
2022-08-27T14:44:21.883Z,23.96
2022-08-27T14:46:50.788Z,23.98
2022-08-27T14:49:27.533Z,23.99
2022-08-27T14:51:54.419Z,23.97
2022-08-27T14:54:21.485Z,23.95
2022-08-27T14:56:48.578Z,24.04
2022-08-27T14:59:15.749Z,24.07
2022-08-27T15:01:43.174Z,24.10
2022-08-27T15:04:10.389Z,24.10
2022-08-27T15:06:39.655Z,24.03
2022-08-27T15:09:07.098Z,24.01
2022-08-27T15:11:36.723Z,24.03
2022-08-27T15:14:07.038Z,24.09
2022-08-27T15:16:41.298Z,24.09
2022-08-27T15:19:11.298Z,24.08
2022-08-27T15:21:40.122Z,24.06
2022-08-27T15:24:16.079Z,24.13
2022-08-27T15:26:42.926Z,24.16
2022-08-27T15:29:10.323Z,24.15
2022-08-27T15:31:38.100Z,24.10
2022-08-27T15:34:05.212Z,24.04
2022-08-27T15:36:32.206Z,24.01
2022-08-27T15:38:59.126Z,24.01
2022-08-27T15:41:29.108Z,24.04
2022-08-27T15:43:56.613Z,24.07
2022-08-27T15:46:23.529Z,24.14
2022-08-27T15:48:50.415Z,24.17
2022-08-27T15:51:20.591Z,24.18
2022-08-27T15:53:48.390Z,24.21
2022-08-27T15:56:15.798Z,24.21
2022-08-27T15:58:42.647Z,24.20
2022-08-27T16:01:13.234Z,24.22
2022-08-27T16:03:42.262Z,24.25
2022-08-27T16:06:09.905Z,24.24
2022-08-27T16:08:42.146Z,24.31
2022-08-27T16:11:09.558Z,24.29
2022-08-27T16:13:38.030Z,24.28
2022-08-27T16:16:06.845Z,24.27
2022-08-27T16:18:34.785Z,24.26
2022-08-27T16:21:03.142Z,24.29
2022-08-27T16:23:31.229Z,24.32
2022-08-27T16:25:58.693Z,24.34
2022-08-27T16:28:26.566Z,24.34
2022-08-27T16:30:54.908Z,24.32
2022-08-27T16:33:23.605Z,24.30
2022-08-27T16:35:51.107Z,24.23
2022-08-27T16:38:18.354Z,24.14
2022-08-27T16:40:50.804Z,24.10
2022-08-27T16:43:21.354Z,24.08
2022-08-27T16:45:51.069Z,24.13
2022-08-27T16:48:37.380Z,24.11
2022-08-27T16:51:06.147Z,24.13
2022-08-27T16:53:38.798Z,24.07
2022-08-27T16:56:05.870Z,24.02
2022-08-27T16:58:34.057Z,23.99
2022-08-27T17:01:09.603Z,23.98
2022-08-27T17:04:07.441Z,23.96
2022-08-27T17:06:31.300Z,23.92
2022-08-27T17:08:59.722Z,23.86
2022-08-27T17:11:30.906Z,23.88
2022-08-27T17:14:02.517Z,23.90
2022-08-27T17:16:32.921Z,23.89
2022-08-27T17:19:00.785Z,23.89
2022-08-27T17:21:31.819Z,23.86
2022-08-27T17:24:02.596Z,23.87
2022-08-27T17:26:31.471Z,23.86
2022-08-27T17:28:59.655Z,23.81
2022-08-27T17:31:36.293Z,23.81
2022-08-27T17:34:04.504Z,23.77
2022-08-27T17:36:34.692Z,23.74
2022-08-27T17:39:03.226Z,23.67
2022-08-27T17:41:39.680Z,23.60
2022-08-27T17:44:28.159Z,23.55
2022-08-27T17:46:57.895Z,23.47
2022-08-27T17:49:25.709Z,23.46
2022-08-27T17:51:58.183Z,23.36
2022-08-27T17:54:34.940Z,23.33
2022-08-27T17:57:03.736Z,23.30
2022-08-27T17:59:30.815Z,23.25
2022-08-27T18:01:58.170Z,23.20
2022-08-27T18:04:25.220Z,23.18
2022-08-27T18:06:52.035Z,23.15
2022-08-27T18:09:19.165Z,23.13
2022-08-27T18:11:46.724Z,23.09
2022-08-27T18:14:16.278Z,23.05
2022-08-27T18:16:45.767Z,23.00
2022-08-27T18:19:13.029Z,22.98
2022-08-27T18:21:46.377Z,22.94
2022-08-27T18:24:13.831Z,22.87
2022-08-27T18:26:40.859Z,22.83
2022-08-27T18:29:07.905Z,22.78
2022-08-27T18:31:34.753Z,22.73
2022-08-27T18:34:02.509Z,22.71
2022-08-27T18:36:30.000Z,22.66
2022-08-27T18:38:57.613Z,22.63
2022-08-27T18:41:26.355Z,22.59
2022-08-27T18:43:53.514Z,22.58
2022-08-27T18:46:20.807Z,22.57
2022-08-27T18:48:48.176Z,22.56
2022-08-27T18:51:18.250Z,22.53
2022-08-27T18:53:46.283Z,22.51
2022-08-27T18:56:16.663Z,22.49
2022-08-27T18:58:44.042Z,22.43
2022-08-27T19:01:19.595Z,22.40
2022-08-27T19:03:50.728Z,22.35
2022-08-27T19:06:20.933Z,22.32
2022-08-27T19:08:50.194Z,22.28
2022-08-27T19:11:17.975Z,22.26
2022-08-27T19:13:45.034Z,22.24
2022-08-27T19:16:22.179Z,22.21
2022-08-27T19:18:49.547Z,22.20
2022-08-27T19:21:16.881Z,22.21
2022-08-27T19:23:44.062Z,22.20
2022-08-27T19:26:23.745Z,22.18
2022-08-27T19:28:51.524Z,22.15
2022-08-27T19:31:18.935Z,22.10
2022-08-27T19:33:46.241Z,22.07
2022-08-27T19:36:17.103Z,22.04
2022-08-27T19:38:45.646Z,22.03
2022-08-27T19:41:13.265Z,22.02
2022-08-27T19:43:41.045Z,22.01
2022-08-27T19:46:16.434Z,22.01
2022-08-27T19:48:43.613Z,21.98
2022-08-27T19:51:10.997Z,21.94
2022-08-27T19:53:38.629Z,21.93
2022-08-27T19:56:10.427Z,21.91
2022-08-27T19:58:37.452Z,21.88
2022-08-27T20:01:05.059Z,21.83
2022-08-27T20:03:32.450Z,21.79
2022-08-27T20:05:59.799Z,21.76
2022-08-27T20:08:26.901Z,21.73
2022-08-27T20:10:54.383Z,21.72
2022-08-27T20:13:21.622Z,21.70
2022-08-27T20:15:50.237Z,21.68
2022-08-27T20:18:18.991Z,21.65
2022-08-27T20:20:46.240Z,21.63
2022-08-27T20:23:14.189Z,21.63
2022-08-27T20:25:42.612Z,21.62
2022-08-27T20:28:37.902Z,21.62
2022-08-27T20:30:59.829Z,21.60
2022-08-27T20:33:27.628Z,21.58
2022-08-27T20:35:56.995Z,21.54
2022-08-27T20:38:24.502Z,21.52
2022-08-27T20:40:51.814Z,21.50
2022-08-27T20:43:19.274Z,21.46
2022-08-27T20:45:46.902Z,21.44
2022-08-27T20:48:15.264Z,21.45
2022-08-27T20:50:44.004Z,21.42
2022-08-27T20:53:11.235Z,21.42
2022-08-27T20:55:38.258Z,21.38
2022-08-27T20:58:24.215Z,21.37
2022-08-27T21:00:55.294Z,21.36
2022-08-27T21:03:23.102Z,21.37
2022-08-27T21:05:50.628Z,21.36
2022-08-27T21:08:20.019Z,21.36
2022-08-27T21:10:51.062Z,21.32
2022-08-27T21:13:20.040Z,21.31
2022-08-27T21:15:47.369Z,21.29
2022-08-27T21:18:14.472Z,21.28
2022-08-27T21:20:41.822Z,21.30
2022-08-27T21:23:10.179Z,21.27
2022-08-27T21:25:37.826Z,21.23
2022-08-27T21:28:07.721Z,21.21
2022-08-27T21:30:35.939Z,21.22
2022-08-27T21:33:04.051Z,21.23
2022-08-27T21:35:32.389Z,21.26
2022-08-27T21:38:00.913Z,21.25
2022-08-27T21:40:29.913Z,21.21
2022-08-27T21:42:58.787Z,21.19
2022-08-27T21:45:26.198Z,21.17
2022-08-27T21:47:53.171Z,21.17
2022-08-27T21:50:21.745Z,21.16
2022-08-27T21:52:48.790Z,21.15
2022-08-27T21:55:18.296Z,21.14
2022-08-27T21:57:45.116Z,21.13
2022-08-27T22:00:22.728Z,21.11
2022-08-27T22:02:50.578Z,21.09
2022-08-27T22:05:18.270Z,21.05
2022-08-27T22:07:45.121Z,21.03
2022-08-27T22:10:12.028Z,21.03
2022-08-27T22:12:39.048Z,21.04
2022-08-27T22:15:16.755Z,21.02
2022-08-27T22:17:46.202Z,21.01
2022-08-27T22:20:15.263Z,21.00
2022-08-27T22:22:42.119Z,20.97
2022-08-27T22:25:21.287Z,20.96
2022-08-27T22:27:48.145Z,20.95
2022-08-27T22:30:15.297Z,20.96
2022-08-27T22:32:42.381Z,20.91
2022-08-27T22:35:16.557Z,20.93
2022-08-27T22:37:44.539Z,20.91
2022-08-27T22:40:19.256Z,20.90
2022-08-27T22:42:47.795Z,20.86
2022-08-27T22:45:21.099Z,20.82
2022-08-27T22:47:48.583Z,20.81
2022-08-27T22:50:15.787Z,20.75
2022-08-27T22:52:44.194Z,20.72
2022-08-27T22:55:19.544Z,20.66
2022-08-27T22:57:51.187Z,20.61
2022-08-27T23:00:22.694Z,20.59
2022-08-27T23:02:49.783Z,20.55
2022-08-27T23:05:17.384Z,20.53
2022-08-27T23:07:45.147Z,20.52
2022-08-27T23:10:17.271Z,20.48
2022-08-27T23:12:45.852Z,20.49
2022-08-27T23:15:22.183Z,20.47
2022-08-27T23:17:49.237Z,20.48
2022-08-27T23:20:16.926Z,20.47
2022-08-27T23:22:45.668Z,20.44
2022-08-27T23:25:31.777Z,20.43
2022-08-27T23:27:59.921Z,20.39
2022-08-27T23:30:27.742Z,20.39
2022-08-27T23:32:55.649Z,20.36
2022-08-27T23:35:24.290Z,20.37
2022-08-27T23:37:52.289Z,20.37
2022-08-27T23:40:21.121Z,20.37
2022-08-27T23:42:49.674Z,20.37
2022-08-27T23:45:21.771Z,20.37
2022-08-27T23:47:48.861Z,20.34
2022-08-27T23:50:16.321Z,20.32
2022-08-27T23:52:43.168Z,20.31
2022-08-27T23:55:18.076Z,20.30
2022-08-27T23:57:44.901Z,20.27
